Time;durP1;ratioP1;P1;durP2;ratioP2;P2;SDS_P1;SDS_P2;PMS_P1;PMS_P2;Temp;Humidity;BMP_temperature;BMP_pressure;BME280_temperature;BME280_humidity;BME280_pressure;Samples;Min_cycle;Max_cycle;Signal;HPM_P1;HPM_P2
2022/02/06 00:00:31;;;;;;;3.33;1.80;;;6.90;99.90;;;;;;5044922;28;20504;-79
2022/02/06 00:03:00;;;;;;;4.10;2.00;;;6.90;99.90;;;;;;5045230;28;20539;-79
2022/02/06 00:05:26;;;;;;;3.03;1.73;;;6.80;99.90;;;;;;5043021;28;20426;-80
2022/02/06 00:07:52;;;;;;;5.53;2.30;;;6.70;99.90;;;;;;5041224;28;20466;-80
2022/02/06 00:10:18;;;;;;;8.80;2.27;;;6.70;99.90;;;;;;5042270;28;20479;-80
2022/02/06 00:12:45;;;;;;;7.70;2.10;;;6.60;99.90;;;;;;5043598;28;20475;-79
2022/02/06 00:15:11;;;;;;;6.37;2.13;;;6.60;99.90;;;;;;5043528;28;20502;-80
2022/02/06 00:17:37;;;;;;;4.10;2.20;;;6.50;99.90;;;;;;5042850;28;20461;-80
2022/02/06 00:20:05;;;;;;;10.20;2.27;;;6.50;99.90;;;;;;5043526;28;20211;-80
2022/02/06 00:22:42;;;;;;;4.50;2.60;;;6.50;99.90;;;;;;5042938;28;20460;-80
2022/02/06 00:32:57;;;;;;;6.73;2.20;;;6.70;99.90;;;;;;5060969;28;20469;-80
2022/02/06 00:38:32;;;;;;;4.20;2.73;;;6.80;99.90;;;;;;5060891;28;20433;-80
2022/02/06 00:43:26;;;;;;;4.53;2.27;;;6.90;99.90;;;;;;5062382;28;20509;-79
2022/02/06 00:45:52;;;;;;;4.47;2.00;;;7.00;99.90;;;;;;5042994;28;20218;-79
2022/02/06 00:48:22;;;;;;;3.87;1.70;;;7.10;99.90;;;;;;5043147;28;20418;-79
2022/02/06 00:50:53;;;;;;;3.70;1.87;;;7.10;99.90;;;;;;5042349;28;20876;-79
2022/02/06 00:53:19;;;;;;;3.27;1.70;;;7.20;99.90;;;;;;5058311;22;21072;-78
2022/02/06 00:55:45;;;;;;;4.57;2.27;;;7.30;99.90;;;;;;5054702;28;20417;-78
2022/02/06 00:58:11;;;;;;;4.43;2.33;;;7.40;99.90;;;;;;5054415;28;20183;-78
2022/02/06 01:00:37;;;;;;;3.73;1.97;;;7.40;99.90;;;;;;5054855;28;20406;-78
2022/02/06 01:03:03;;;;;;;5.33;2.17;;;7.40;99.90;;;;;;5054616;28;20438;-79
2022/02/06 01:05:29;;;;;;;5.70;2.50;;;7.50;99.90;;;;;;5054858;28;20421;-77
2022/02/06 01:07:55;;;;;;;5.97;2.17;;;7.60;99.90;;;;;;5054189;28;20439;-78
2022/02/06 01:10:23;;;;;;;5.30;1.97;;;7.60;99.90;;;;;;5054620;28;20174;-79
2022/02/06 01:12:56;;;;;;;4.80;2.30;;;7.60;99.90;;;;;;5054422;28;20894;-78
2022/02/06 01:15:31;;;;;;;8.20;2.57;;;7.60;99.90;;;;;;5054728;28;20456;-79
2022/02/06 01:18:06;;;;;;;3.33;1.90;;;7.60;99.90;;;;;;5054289;28;20826;-78
2022/02/06 01:20:38;;;;;;;6.10;1.90;;;7.70;99.90;;;;;;5054711;28;20420;-79
2022/02/06 01:23:09;;;;;;;3.77;2.50;;;7.70;99.90;;;;;;5054767;28;20453;-78
2022/02/06 01:25:54;;;;;;;3.77;1.83;;;7.70;99.90;;;;;;5054405;28;20419;-77
2022/02/06 01:28:28;;;;;;;5.77;2.07;;;7.70;99.90;;;;;;5054644;28;20435;-77
2022/02/06 01:31:50;;;;;;;8.10;2.07;;;7.80;99.90;;;;;;5054210;28;20417;-78
2022/02/06 01:33:46;;;;;;;4.33;1.60;;;7.80;99.90;;;;;;5061988;28;20628;-78
2022/02/06 01:39:03;;;;;;;5.73;2.53;;;7.90;99.90;;;;;;5072818;28;20507;-78
2022/02/06 01:41:35;;;;;;;5.60;2.13;;;7.90;99.90;;;;;;5054581;28;20186;-79
2022/02/06 01:44:07;;;;;;;3.57;2.10;;;7.90;99.90;;;;;;5054587;28;21014;-78
2022/02/06 02:47:13;;;;;;;3.70;1.90;;;8.20;99.90;;;;;;5075451;28;20940;-78
2022/02/06 02:49:43;;;;;;;8.43;2.07;;;8.20;99.90;;;;;;5058243;28;20657;-78
2022/02/06 02:52:17;;;;;;;3.63;2.00;;;8.20;99.90;;;;;;5057299;28;20471;-78
2022/02/06 02:54:48;;;;;;;7.93;2.50;;;8.10;99.90;;;;;;5057548;28;20448;-79
2022/02/06 02:57:27;;;;;;;5.93;1.80;;;8.10;99.90;;;;;;5057119;28;20421;-78
2022/02/06 03:00:23;;;;;;;6.63;2.40;;;8.10;99.90;;;;;;5056268;28;20421;-79
2022/02/06 03:02:53;;;;;;;6.60;2.33;;;8.10;99.90;;;;;;5056067;28;20448;-78
2022/02/06 03:05:19;;;;;;;4.90;2.07;;;8.10;99.90;;;;;;5056153;28;20472;-79
2022/02/06 03:07:45;;;;;;;5.83;2.30;;;8.20;99.90;;;;;;5056227;28;20457;-77
2022/02/06 03:10:11;;;;;;;5.47;2.27;;;8.20;99.90;;;;;;5056267;28;20433;-77
2022/02/06 03:12:37;;;;;;;6.40;2.40;;;8.10;99.90;;;;;;5056162;28;20263;-77
2022/02/06 03:15:19;;;;;;;7.00;2.70;;;8.00;99.90;;;;;;5055828;28;20557;-78
2022/02/06 03:17:45;;;;;;;4.23;2.27;;;7.90;99.90;;;;;;5055949;28;20428;-78
2022/02/06 03:20:18;;;;;;;5.20;2.53;;;7.80;99.90;;;;;;5056366;28;20983;-77
2022/02/06 03:22:52;;;;;;;6.57;2.53;;;7.70;99.90;;;;;;5056140;28;20445;-79
2022/02/06 03:25:23;;;;;;;4.20;2.47;;;7.60;99.90;;;;;;5056033;28;20951;-78
2022/02/06 03:27:50;;;;;;;3.70;1.97;;;7.60;99.90;;;;;;5056244;28;20424;-78
2022/02/06 03:30:17;;;;;;;9.50;2.53;;;7.60;99.90;;;;;;5056117;28;20418;-77
2022/02/06 03:32:43;;;;;;;4.77;2.50;;;7.50;99.90;;;;;;5056242;28;20514;-80
2022/02/06 03:35:09;;;;;;;3.53;2.10;;;7.50;99.90;;;;;;5056217;28;20421;-79
2022/02/06 03:37:35;;;;;;;6.33;2.20;;;7.50;99.90;;;;;;5055576;28;20171;-79
2022/02/06 03:40:05;;;;;;;6.20;2.57;;;7.40;99.90;;;;;;5056094;28;20410;-79
2022/02/06 03:42:43;;;;;;;5.97;2.80;;;7.40;99.90;;;;;;5055758;28;20453;-80
2022/02/06 03:45:12;;;;;;;5.50;2.27;;;7.30;99.90;;;;;;5055847;28;20515;-79
2022/02/06 03:47:56;;;;;;;3.30;2.50;;;7.20;99.90;;;;;;5055350;28;20425;-78
2022/02/06 03:50:32;;;;;;;7.43;2.40;;;7.20;99.90;;;;;;5055776;28;20424;-78
2022/02/06 03:52:57;;;;;;;5.93;2.43;;;7.20;99.90;;;;;;5055444;28;20480;-79
2022/02/06 03:55:23;;;;;;;4.80;2.40;;;7.10;99.90;;;;;;5055760;28;20417;-78
2022/02/06 03:57:51;;;;;;;7.73;2.27;;;7.10;99.90;;;;;;5055392;28;20788;-79
2022/02/06 04:00:20;;;;;;;4.30;2.00;;;7.10;99.90;;;;;;5055375;28;20416;-79
2022/02/06 04:02:46;;;;;;;5.70;2.13;;;7.10;99.90;;;;;;5055147;28;20441;-77
2022/02/06 04:05:14;;;;;;;11.70;2.90;;;7.00;99.90;;;;;;5055093;28;20424;-78
2022/02/06 04:07:43;;;;;;;4.77;2.03;;;7.10;99.90;;;;;;5055115;28;20566;-78
2022/02/06 04:10:11;;;;;;;6.40;2.57;;;7.00;99.90;;;;;;5055208;28;20516;-79
2022/02/06 04:12:40;;;;;;;4.50;2.73;;;7.00;99.90;;;;;;5054617;28;20471;-78
2022/02/06 04:15:11;;;;;;;4.33;2.60;;;7.00;99.90;;;;;;5054502;28;20427;-78
2022/02/06 04:17:45;;;;;;;5.67;2.60;;;7.00;99.90;;;;;;5055577;28;20406;-77
2022/02/06 04:20:11;;;;;;;4.60;2.10;;;7.00;99.90;;;;;;5056436;28;20422;-78
2022/02/06 04:22:37;;;;;;;6.07;3.53;;;7.00;99.90;;;;;;5056305;28;20471;-77
2022/02/06 04:25:04;;;;;;;5.93;2.63;;;7.00;99.90;;;;;;5055602;28;20777;-77
2022/02/06 04:27:32;;;;;;;12.90;3.00;;;7.10;99.90;;;;;;5055922;28;20657;-78
2022/02/06 04:29:58;;;;;;;5.80;2.90;;;7.00;99.90;;;;;;5055465;28;20414;-78
2022/02/06 04:32:27;;;;;;;10.07;2.90;;;7.00;99.90;;;;;;5056147;28;20472;-78
2022/02/06 04:34:55;;;;;;;4.40;2.50;;;7.00;99.90;;;;;;5055807;28;20175;-78
2022/02/06 04:43:17;;;;;;;11.33;2.60;;;7.10;99.90;;;;;;5073456;28;20182;-77
2022/02/06 04:53:26;;;;;;;3.13;2.00;;;7.20;99.90;;;;;;5072756;28;20453;-78
2022/02/06 05:17:44;;;;;;;3.20;1.77;;;7.10;99.90;;;;;;5010681;28;20172;-78
2022/02/06 05:20:41;;;;;;;4.70;2.33;;;7.10;99.90;;;;;;5067348;28;20425;-78
2022/02/06 05:23:36;;;;;;;9.17;2.53;;;7.10;99.90;;;;;;5072659;28;20448;-78
2022/02/06 05:28:57;;;;;;;3.57;1.97;;;7.10;99.90;;;;;;5076682;28;20474;-77
2022/02/06 05:34:06;;;;;;;4.60;2.07;;;7.10;99.90;;;;;;5075708;28;20521;-76
2022/02/06 05:36:33;;;;;;;4.50;2.13;;;7.10;99.90;;;;;;5057857;28;20795;-78
2022/02/06 05:38:59;;;;;;;7.53;1.93;;;7.10;99.90;;;;;;5058363;28;21184;-77
2022/02/06 05:41:25;;;;;;;6.53;2.20;;;7.20;99.90;;;;;;5058493;28;20482;-77
2022/02/06 05:43:51;;;;;;;6.03;1.40;;;7.30;99.90;;;;;;5057999;28;20202;-77
2022/02/06 05:46:17;;;;;;;4.10;1.73;;;7.20;99.90;;;;;;5057615;28;20183;-77
2022/02/06 05:48:43;;;;;;;4.20;1.93;;;7.30;99.90;;;;;;5058173;28;20645;-77
2022/02/06 05:51:09;;;;;;;3.60;1.63;;;7.20;99.90;;;;;;5057645;28;20409;-78
2022/02/06 05:53:35;;;;;;;6.23;1.87;;;7.20;99.90;;;;;;5057129;28;20700;-77
2022/02/06 05:56:01;;;;;;;3.30;1.70;;;7.20;99.90;;;;;;5057132;28;20417;-77
2022/02/06 05:58:27;;;;;;;8.10;2.50;;;7.20;99.90;;;;;;5056779;28;20179;-78
2022/02/06 06:00:53;;;;;;;3.37;1.57;;;7.20;99.90;;;;;;5056848;28;20417;-76
2022/02/06 06:03:18;;;;;;;5.50;1.63;;;7.20;99.90;;;;;;5056521;28;20194;-78
2022/02/06 06:05:44;;;;;;;3.37;1.60;;;7.30;99.90;;;;;;5056593;28;20471;-77
2022/02/06 06:08:10;;;;;;;5.57;2.80;;;7.20;99.90;;;;;;5056351;28;20229;-78
2022/02/06 06:10:37;;;;;;;7.07;2.13;;;7.30;99.90;;;;;;5056683;28;20611;-77
2022/02/06 06:13:02;;;;;;;3.37;1.83;;;7.30;99.90;;;;;;5056675;28;20268;-77
2022/02/06 06:15:29;;;;;;;3.73;2.00;;;7.20;99.90;;;;;;5056484;28;20410;-76
2022/02/06 06:17:56;;;;;;;2.97;1.60;;;7.20;99.90;;;;;;5056429;28;20199;-76
2022/02/06 06:20:24;;;;;;;3.17;1.77;;;7.20;99.90;;;;;;5056387;28;20851;-77
2022/02/06 06:22:53;;;;;;;3.90;2.63;;;7.10;99.90;;;;;;5056319;28;20503;-77
2022/02/06 06:25:19;;;;;;;4.53;1.63;;;7.10;99.90;;;;;;5056473;28;20432;-77
2022/02/06 06:27:45;;;;;;;4.40;1.63;;;7.10;99.90;;;;;;5056116;28;20478;-78
2022/02/06 06:30:11;;;;;;;6.87;2.00;;;7.10;99.90;;;;;;5056212;28;20492;-79
2022/02/06 06:32:37;;;;;;;4.60;2.00;;;7.10;99.90;;;;;;5056007;28;20211;-78
2022/02/06 06:35:05;;;;;;;2.70;1.63;;;7.10;99.90;;;;;;5056098;28;20440;-78
2022/02/06 06:37:31;;;;;;;2.90;1.50;;;7.10;99.90;;;;;;5055636;28;20685;-78
2022/02/06 06:39:57;;;;;;;3.70;1.83;;;7.10;99.90;;;;;;5055330;28;20437;-78
2022/02/06 06:42:23;;;;;;;4.30;1.53;;;7.10;99.90;;;;;;5056152;28;20451;-78
2022/02/06 06:44:49;;;;;;;3.40;1.50;;;7.20;99.90;;;;;;5055934;28;20500;-78
2022/02/06 06:47:15;;;;;;;4.30;1.53;;;7.20;99.90;;;;;;5055808;28;20206;-77
2022/02/06 06:49:40;;;;;;;3.97;1.70;;;7.20;99.90;;;;;;5055787;28;20190;-77
2022/02/06 06:52:07;;;;;;;3.53;1.90;;;7.30;99.90;;;;;;5055838;28;20207;-77
2022/02/06 06:54:43;;;;;;;3.90;1.80;;;7.30;99.90;;;;;;5070813;22;20600;-79
2022/02/06 06:57:25;;;;;;;2.80;1.30;;;7.30;99.90;;;;;;5058633;28;20461;-80
2022/02/06 07:04:57;;;;;;;3.10;1.50;;;7.40;99.90;;;;;;5077434;28;20201;-80
2022/02/06 07:07:24;;;;;;;4.37;1.93;;;7.40;99.90;;;;;;5057471;28;20474;-79
2022/02/06 07:09:50;;;;;;;3.33;1.50;;;7.50;99.90;;;;;;5058478;28;20431;-79
2022/02/06 07:12:15;;;;;;;5.27;2.33;;;7.50;99.90;;;;;;5058257;28;20837;-79
2022/02/06 07:14:45;;;;;;;7.37;1.53;;;7.50;99.90;;;;;;5057486;28;20652;-79
2022/02/06 07:17:12;;;;;;;5.20;1.77;;;7.50;99.90;;;;;;5058496;28;20198;-80
2022/02/06 07:19:39;;;;;;;8.00;1.97;;;7.50;99.90;;;;;;5057412;28;20508;-79
2022/02/06 07:22:07;;;;;;;5.23;1.53;;;7.60;99.90;;;;;;5057214;28;20424;-79
2022/02/06 07:24:34;;;;;;;5.60;1.73;;;7.60;99.90;;;;;;5076239;28;20958;-79
2022/02/06 07:27:02;;;;;;;2.80;1.50;;;7.60;99.90;;;;;;5060204;28;20424;-81
2022/02/06 07:29:28;;;;;;;4.33;1.40;;;7.60;99.90;;;;;;5059774;28;20509;-80
2022/02/06 07:31:56;;;;;;;3.70;1.67;;;7.60;99.90;;;;;;5078018;28;20421;-79
2022/02/06 07:34:22;;;;;;;3.97;1.43;;;7.60;99.90;;;;;;5078147;28;20429;-80
2022/02/06 07:36:48;;;;;;;3.53;1.23;;;7.50;99.90;;;;;;5059886;28;20432;-79
2022/02/06 07:39:14;;;;;;;2.80;1.30;;;7.50;99.90;;;;;;5079514;28;20811;-79
2022/02/06 07:41:39;;;;;;;3.13;1.10;;;7.50;99.90;;;;;;5060671;28;20467;-79
2022/02/06 07:44:05;;;;;;;2.50;1.17;;;7.50;99.90;;;;;;5061373;28;20209;-79
2022/02/06 07:46:40;;;;;;;4.23;1.87;;;7.50;99.90;;;;;;5060728;28;20183;-79
2022/02/06 07:49:06;;;;;;;4.20;1.30;;;7.50;99.90;;;;;;5078302;28;20178;-79
2022/02/06 07:51:33;;;;;;;2.97;1.40;;;7.50;99.90;;;;;;5078038;28;20497;-79
2022/02/06 07:53:58;;;;;;;2.53;1.20;;;7.50;99.90;;;;;;5075555;28;20215;-82
2022/02/06 07:56:24;;;;;;;6.03;1.37;;;7.50;99.90;;;;;;5057646;28;20432;-81
2022/02/06 07:58:49;;;;;;;2.83;1.60;;;7.50;99.90;;;;;;5057245;28;20217;-81
2022/02/06 08:01:15;;;;;;;2.70;1.30;;;7.40;99.90;;;;;;5076031;28;20179;-81
2022/02/06 08:03:40;;;;;;;4.30;1.30;;;7.40;99.90;;;;;;5075526;28;20203;-79
2022/02/06 08:06:06;;;;;;;2.80;1.20;;;7.40;99.90;;;;;;5058716;28;20179;-79
2022/02/06 08:08:31;;;;;;;2.30;1.00;;;7.40;99.90;;;;;;5076034;28;20638;-81
2022/02/06 08:11:01;;;;;;;3.37;1.07;;;7.40;99.90;;;;;;5075421;28;20660;-82
2022/02/06 08:13:39;;;;;;;2.30;1.10;;;7.40;99.90;;;;;;5057096;28;20228;-82
2022/02/06 08:16:06;;;;;;;2.20;1.00;;;7.50;99.90;;;;;;5075158;28;20417;-81
2022/02/06 08:18:31;;;;;;;3.90;1.10;;;7.50;99.90;;;;;;5056800;28;20852;-81
2022/02/06 08:20:57;;;;;;;2.10;0.80;;;7.50;99.90;;;;;;5074301;28;20447;-81
2022/02/06 08:23:22;;;;;;;3.33;1.20;;;7.50;99.90;;;;;;5056126;28;20201;-82
2022/02/06 08:25:48;;;;;;;3.17;1.00;;;7.60;99.90;;;;;;5056154;28;20202;-81
2022/02/06 08:28:15;;;;;;;2.50;0.97;;;7.60;99.90;;;;;;5055942;28;20190;-82
2022/02/06 08:30:42;;;;;;;3.03;1.10;;;7.60;99.90;;;;;;5073951;28;20176;-81
2022/02/06 08:33:07;;;;;;;2.80;1.00;;;7.60;99.90;;;;;;5074008;28;20468;-81
2022/02/06 08:35:33;;;;;;;3.37;0.90;;;7.60;99.90;;;;;;5055426;28;20467;-81
2022/02/06 08:37:59;;;;;;;2.30;1.00;;;7.70;99.90;;;;;;5073371;28;20197;-80
2022/02/06 08:40:24;;;;;;;4.93;0.97;;;7.70;99.90;;;;;;5073774;28;20179;-82
2022/02/06 08:42:50;;;;;;;2.20;1.00;;;7.70;99.90;;;;;;5055718;28;20183;-81
2022/02/06 08:45:17;;;;;;;2.30;1.10;;;7.70;99.90;;;;;;5055459;28;20735;-82
2022/02/06 08:47:43;;;;;;;2.20;0.87;;;7.70;99.90;;;;;;5055220;28;20214;-81
2022/02/06 08:50:11;;;;;;;2.93;1.37;;;7.70;99.90;;;;;;5055498;28;20480;-81
2022/02/06 08:52:36;;;;;;;2.57;0.97;;;7.70;99.90;;;;;;5055218;28;21281;-82
2022/02/06 08:55:04;;;;;;;2.00;0.80;;;7.70;99.90;;;;;;5055462;28;20503;-82
2022/02/06 08:57:30;;;;;;;2.40;1.00;;;7.80;99.90;;;;;;5055536;28;20660;-82
2022/02/06 08:59:57;;;;;;;2.53;1.00;;;7.80;99.90;;;;;;5073663;28;20409;-82
2022/02/06 09:02:24;;;;;;;3.50;1.20;;;7.70;99.90;;;;;;5060299;28;20645;-81
2022/02/06 09:04:50;;;;;;;2.10;0.87;;;7.70;99.90;;;;;;5061496;28;20970;-82
2022/02/06 09:07:17;;;;;;;2.40;0.97;;;7.80;99.90;;;;;;5061599;28;20489;-82
2022/02/06 09:09:47;;;;;;;2.30;0.90;;;7.70;99.90;;;;;;5080128;28;20414;-82
2022/02/06 09:12:13;;;;;;;3.00;0.97;;;7.70;99.90;;;;;;5080095;28;20487;-82
2022/02/06 09:14:39;;;;;;;2.10;0.80;;;7.70;99.90;;;;;;5079879;28;20435;-82
2022/02/06 09:17:05;;;;;;;2.20;0.90;;;7.70;99.90;;;;;;5078658;28;20413;-81
2022/02/06 09:19:33;;;;;;;3.07;0.90;;;7.70;99.90;;;;;;5078408;28;20405;-81
2022/02/06 09:21:59;;;;;;;2.10;0.90;;;7.70;99.90;;;;;;5078749;28;20170;-81
2022/02/06 09:24:25;;;;;;;2.30;0.97;;;7.70;99.90;;;;;;5060486;28;20516;-81
2022/02/06 09:26:50;;;;;;;2.10;0.90;;;7.60;99.90;;;;;;5060263;28;20179;-80
2022/02/06 09:29:17;;;;;;;2.27;0.87;;;7.60;99.90;;;;;;5060661;28;20431;-82
2022/02/06 09:31:43;;;;;;;2.10;0.80;;;7.60;99.90;;;;;;5060393;28;20174;-81
2022/02/06 09:36:35;;;;;;;4.00;0.97;;;7.60;99.90;;;;;;5078086;28;20465;-81
2022/02/06 09:39:02;;;;;;;2.40;0.83;;;7.50;99.90;;;;;;5060498;28;20793;-80
2022/02/06 09:41:28;;;;;;;2.03;0.80;;;7.60;99.90;;;;;;5060250;28;20273;-81
2022/02/06 09:43:55;;;;;;;1.97;0.80;;;7.60;99.90;;;;;;5060247;28;20908;-81
2022/02/06 09:46:22;;;;;;;2.37;1.00;;;7.50;99.90;;;;;;5060190;28;20187;-81
2022/02/06 09:48:50;;;;;;;4.27;0.80;;;7.60;99.90;;;;;;5078075;28;20413;-82
2022/02/06 09:51:16;;;;;;;2.67;0.87;;;7.60;99.90;;;;;;5060102;28;20898;-80
2022/02/06 09:53:42;;;;;;;2.10;0.80;;;7.50;99.90;;;;;;5060134;28;20500;-83
2022/02/06 09:56:12;;;;;;;2.03;0.80;;;7.50;99.90;;;;;;5060380;28;20425;-82
2022/02/06 10:01:15;;;;;;;2.33;0.90;;;7.50;99.90;;;;;;5078128;28;20426;-81
2022/02/06 10:03:49;;;;;;;2.00;0.83;;;7.50;99.90;;;;;;5078164;28;20437;-81
2022/02/06 10:06:21;;;;;;;2.10;0.90;;;7.50;99.90;;;;;;5080398;28;20171;-82
2022/02/06 10:08:51;;;;;;;2.10;0.90;;;7.50;99.90;;;;;;5066064;28;20413;-82
2022/02/06 10:11:18;;;;;;;2.00;0.70;;;7.50;99.90;;;;;;5084458;28;20459;-82
2022/02/06 10:13:46;;;;;;;2.10;0.80;;;7.50;99.90;;;;;;5081127;28;20468;-82
2022/02/06 10:16:14;;;;;;;2.20;0.90;;;7.50;99.90;;;;;;5063214;28;20507;-82
2022/02/06 10:18:42;;;;;;;2.10;0.90;;;7.40;99.90;;;;;;5061795;28;20790;-83
2022/02/06 10:21:10;;;;;;;2.23;0.83;;;7.40;99.90;;;;;;5079961;28;20417;-83
2022/02/06 10:23:42;;;;;;;2.00;0.90;;;7.40;99.90;;;;;;5062032;28;20428;-82
2022/02/06 10:26:27;;;;;;;2.20;0.90;;;7.40;99.90;;;;;;5061829;28;20440;-82
2022/02/06 10:31:50;;;;;;;3.10;0.93;;;7.30;99.90;;;;;;5079432;28;20429;-83
2022/02/06 10:34:21;;;;;;;2.00;0.80;;;7.30;99.90;;;;;;5061437;28;20453;-83
2022/02/06 10:36:48;;;;;;;2.30;0.90;;;7.30;99.90;;;;;;5079649;28;20922;-82
2022/02/06 10:39:17;;;;;;;3.70;0.93;;;7.30;99.90;;;;;;5060696;28;20452;-83
2022/02/06 10:41:47;;;;;;;2.00;0.80;;;7.30;99.90;;;;;;5061399;28;20424;-83
2022/02/06 10:44:14;;;;;;;2.23;0.90;;;7.30;99.90;;;;;;5066739;22;20550;-78
2022/02/06 10:46:46;;;;;;;3.13;0.90;;;7.30;99.90;;;;;;5061494;28;20436;-79
2022/02/06 10:49:17;;;;;;;2.10;0.87;;;7.30;99.90;;;;;;5061118;28;20416;-78
2022/02/06 10:51:49;;;;;;;2.33;0.90;;;7.30;99.90;;;;;;5060851;28;20437;-79
2022/02/06 10:54:25;;;;;;;3.37;1.00;;;7.30;99.90;;;;;;5057438;28;20546;-79
2022/02/06 10:57:11;;;;;;;3.03;0.87;;;7.20;99.90;;;;;;5057851;28;20793;-79
2022/02/06 10:59:43;;;;;;;2.40;0.80;;;7.20;99.90;;;;;;5058628;28;20413;-79
2022/02/06 11:02:23;;;;;;;2.10;1.00;;;7.30;99.90;;;;;;5058672;28;20513;-78
2022/02/06 11:04:59;;;;;;;2.30;0.83;;;7.20;99.90;;;;;;5060354;28;20427;-80
2022/02/06 11:07:25;;;;;;;2.40;0.80;;;7.30;99.90;;;;;;5059928;28;20451;-78
2022/02/06 11:09:51;;;;;;;1.93;0.70;;;7.20;99.90;;;;;;5060225;28;20429;-79
2022/02/06 11:12:22;;;;;;;2.20;0.90;;;7.20;99.90;;;;;;5060043;28;20700;-79
2022/02/06 11:14:51;;;;;;;2.00;0.80;;;7.20;99.90;;;;;;5060144;28;20517;-79
2022/02/06 11:17:27;;;;;;;2.30;0.80;;;7.20;99.90;;;;;;5060235;28;20445;-78
2022/02/06 11:20:10;;;;;;;2.10;0.90;;;7.20;99.90;;;;;;5060326;28;20448;-78
2022/02/06 11:22:49;;;;;;;2.10;0.70;;;7.20;99.90;;;;;;5060013;28;20821;-79
2022/02/06 11:25:15;;;;;;;2.20;0.87;;;7.20;99.90;;;;;;5059412;28;20417;-78
2022/02/06 11:27:45;;;;;;;3.63;0.83;;;7.20;99.90;;;;;;5060084;28;20423;-79
2022/02/06 11:30:11;;;;;;;2.20;0.90;;;7.10;99.90;;;;;;5060589;28;20985;-79
2022/02/06 11:32:40;;;;;;;2.10;0.80;;;7.10;99.90;;;;;;5059801;28;20998;-79
2022/02/06 11:35:13;;;;;;;2.30;0.90;;;7.10;99.90;;;;;;5060151;28;20470;-78
2022/02/06 11:46:31;;;;;;;2.00;0.73;;;7.10;99.90;;;;;;5077397;28;20505;-78
2022/02/06 11:49:18;;;;;;;2.10;0.80;;;7.20;99.90;;;;;;5031106;28;21007;-79
2022/02/06 11:51:59;;;;;;;2.97;0.73;;;7.20;99.90;;;;;;5059278;28;20417;-79
2022/02/06 11:54:32;;;;;;;2.10;1.13;;;7.30;99.90;;;;;;5059634;28;20449;-78
2022/02/06 12:00:03;;;;;;;2.10;0.80;;;7.30;99.90;;;;;;5079164;28;20428;-78
2022/02/06 12:02:31;;;;;;;2.00;0.70;;;7.20;99.90;;;;;;5059592;28;20943;-80
2022/02/06 12:05:09;;;;;;;2.80;0.80;;;7.20;99.90;;;;;;5059757;28;20963;-78
2022/02/06 12:07:53;;;;;;;2.20;0.87;;;7.20;99.90;;;;;;5059633;28;20462;-78
2022/02/06 12:10:23;;;;;;;2.00;0.77;;;7.20;99.90;;;;;;5058884;28;20413;-79
2022/02/06 12:13:29;;;;;;;3.53;0.80;;;7.20;99.90;;;;;;5058938;28;20472;-78
2022/02/06 12:16:00;;;;;;;3.03;0.90;;;7.30;99.90;;;;;;5059401;28;20832;-78
2022/02/06 12:18:35;;;;;;;2.00;0.70;;;7.30;99.90;;;;;;5059606;28;20501;-78
2022/02/06 12:21:14;;;;;;;6.17;0.90;;;7.30;99.90;;;;;;5060062;28;20448;-78
2022/02/06 12:23:43;;;;;;;2.13;0.90;;;7.30;99.90;;;;;;5059534;28;20437;-78
2022/02/06 12:26:29;;;;;;;2.00;0.80;;;7.40;99.90;;;;;;5059895;28;20428;-78
2022/02/06 12:28:55;;;;;;;3.10;0.90;;;7.40;99.90;;;;;;5058963;28;20432;-78
2022/02/06 12:31:30;;;;;;;2.17;0.77;;;7.50;99.90;;;;;;5060044;28;20425;-79
2022/02/06 12:39:32;;;;;;;2.00;0.70;;;7.70;99.90;;;;;;5077236;28;20444;-78
2022/02/06 12:41:58;;;;;;;2.00;0.73;;;7.80;99.90;;;;;;5058847;28;20904;-78
2022/02/06 12:44:26;;;;;;;2.00;0.70;;;7.90;99.90;;;;;;5058501;28;20464;-78
2022/02/06 12:46:55;;;;;;;2.10;0.80;;;8.00;99.90;;;;;;5058020;28;20439;-78
2022/02/06 12:49:34;;;;;;;2.20;1.10;;;8.10;99.90;;;;;;5058822;28;20422;-79
2022/02/06 12:52:01;;;;;;;2.23;0.80;;;8.10;99.90;;;;;;5058476;28;20421;-78
2022/02/06 12:57:05;;;;;;;2.40;0.83;;;8.30;99.90;;;;;;5068708;28;20458;-76
2022/02/06 12:59:33;;;;;;;2.30;1.00;;;8.30;99.90;;;;;;5053733;28;20425;-76
2022/02/06 13:02:00;;;;;;;2.57;1.00;;;8.30;99.90;;;;;;5053898;28;20498;-77
2022/02/06 13:04:29;;;;;;;3.57;1.40;;;8.40;99.90;;;;;;5053732;28;20449;-76
2022/02/06 13:07:01;;;;;;;3.27;1.27;;;8.40;99.90;;;;;;5053793;28;20421;-76
2022/02/06 13:09:32;;;;;;;2.53;1.33;;;8.50;99.90;;;;;;5053887;28;20417;-76
2022/02/06 13:12:09;;;;;;;2.93;1.60;;;8.50;99.90;;;;;;5053729;28;20418;-76
2022/02/06 13:20:09;;;;;;;5.40;1.77;;;8.70;99.90;;;;;;5071603;28;20503;-76
2022/02/06 13:22:51;;;;;;;3.43;1.37;;;8.70;99.90;;;;;;5053493;28;20441;-77
2022/02/06 13:33:23;;;;;;;3.03;1.30;;;8.60;99.90;;;;;;5071616;28;20550;-76
2022/02/06 13:35:59;;;;;;;2.10;1.00;;;8.40;99.90;;;;;;5053496;28;20417;-76
2022/02/06 13:38:32;;;;;;;2.37;0.90;;;8.20;99.90;;;;;;5053371;28;20477;-76
2022/02/06 13:41:00;;;;;;;2.10;0.80;;;8.00;99.90;;;;;;5053470;28;20421;-76
2022/02/06 13:43:27;;;;;;;2.30;0.73;;;7.80;99.90;;;;;;5053392;28;20449;-76
2022/02/06 13:45:57;;;;;;;2.60;0.97;;;7.40;99.90;;;;;;5053822;28;20659;-76
2022/02/06 13:48:29;;;;;;;2.57;0.97;;;7.20;99.90;;;;;;5055174;28;20538;-76
2022/02/06 13:50:58;;;;;;;2.20;0.80;;;7.10;99.90;;;;;;5057318;28;20421;-77
2022/02/06 13:53:26;;;;;;;2.77;1.00;;;6.90;99.90;;;;;;5057121;28;20563;-77
2022/02/06 13:56:01;;;;;;;2.57;0.83;;;6.80;99.90;;;;;;5057031;28;20446;-77
2022/02/06 13:58:31;;;;;;;2.77;0.87;;;6.70;99.90;;;;;;5056942;28;20421;-77
2022/02/06 14:01:01;;;;;;;2.87;1.00;;;6.60;99.90;;;;;;5057023;28;20977;-77
2022/02/06 14:03:40;;;;;;;3.53;1.20;;;6.60;99.90;;;;;;5056946;28;20451;-77
2022/02/06 14:06:11;;;;;;;2.10;0.90;;;6.60;99.90;;;;;;5056790;28;20909;-76
2022/02/06 14:08:39;;;;;;;3.00;1.23;;;6.70;99.90;;;;;;5056487;28;20471;-76
2022/02/06 14:11:16;;;;;;;2.20;0.83;;;6.60;99.90;;;;;;5056685;28;20433;-76
2022/02/06 14:13:42;;;;;;;2.40;1.20;;;6.70;99.90;;;;;;5056450;28;20472;-76
2022/02/06 14:16:11;;;;;;;3.13;1.10;;;6.70;99.90;;;;;;5056447;28;20786;-76
2022/02/06 14:18:48;;;;;;;3.27;1.17;;;6.70;99.90;;;;;;5056315;28;20205;-76
2022/02/06 14:21:14;;;;;;;2.20;1.10;;;6.80;99.90;;;;;;5056457;28;20516;-76
2022/02/06 14:23:42;;;;;;;4.87;1.20;;;6.80;99.90;;;;;;5056248;28;20448;-76
2022/02/06 14:26:16;;;;;;;2.40;0.90;;;6.80;99.90;;;;;;5056419;28;21127;-76
2022/02/06 14:28:50;;;;;;;2.30;1.00;;;6.80;99.90;;;;;;5056117;28;20793;-76
2022/02/06 14:31:33;;;;;;;3.57;1.60;;;6.80;99.90;;;;;;5056276;28;20421;-76
2022/02/06 14:34:18;;;;;;;2.90;1.30;;;6.90;99.90;;;;;;5056064;28;20464;-76
2022/02/06 14:37:07;;;;;;;4.53;1.10;;;6.80;99.90;;;;;;5055988;28;20413;-76
2022/02/06 14:39:36;;;;;;;3.10;1.10;;;6.80;99.90;;;;;;5056160;28;20440;-76
2022/02/06 14:42:13;;;;;;;2.67;1.40;;;6.80;99.90;;;;;;5055958;28;20424;-76
2022/02/06 14:44:38;;;;;;;3.83;1.77;;;6.80;99.90;;;;;;5055914;28;20444;-76
2022/02/06 14:47:05;;;;;;;4.40;1.33;;;6.70;99.90;;;;;;5055843;28;20562;-76
2022/02/06 14:49:31;;;;;;;5.80;1.47;;;6.80;99.90;;;;;;5055952;28;20450;-76
2022/02/06 14:51:59;;;;;;;4.90;1.83;;;7.00;99.90;;;;;;5055978;28;20862;-76
2022/02/06 14:54:32;;;;;;;2.80;1.17;;;6.90;99.90;;;;;;5055571;28;20483;-76
2022/02/06 14:56:57;;;;;;;5.80;1.47;;;6.90;99.90;;;;;;5055551;28;20799;-76
2022/02/06 14:59:24;;;;;;;2.77;1.40;;;6.80;99.90;;;;;;5054935;28;20417;-76
2022/02/06 15:01:53;;;;;;;2.67;1.23;;;6.90;99.90;;;;;;5055915;28;20931;-76
2022/02/06 15:04:19;;;;;;;2.70;1.27;;;6.90;99.90;;;;;;5055524;28;20483;-76
2022/02/06 15:06:45;;;;;;;2.57;1.10;;;6.90;99.90;;;;;;5055460;28;21111;-76
2022/02/06 15:09:11;;;;;;;2.30;1.23;;;6.90;99.90;;;;;;5055776;28;20187;-76
2022/02/06 15:11:37;;;;;;;2.90;1.50;;;6.90;99.90;;;;;;5055621;28;20191;-76
2022/02/06 15:14:03;;;;;;;3.60;1.50;;;6.90;99.90;;;;;;5055642;28;20348;-76
2022/02/06 15:16:32;;;;;;;3.00;1.40;;;6.90;99.90;;;;;;5055540;28;20430;-76
2022/02/06 15:19:01;;;;;;;2.57;1.40;;;6.90;99.90;;;;;;5055530;28;20472;-76
2022/02/06 15:21:27;;;;;;;4.10;1.57;;;6.90;99.90;;;;;;5055324;28;20425;-76
2022/02/06 15:23:53;;;;;;;2.60;1.30;;;6.90;99.90;;;;;;5055248;28;20858;-76
2022/02/06 15:26:19;;;;;;;3.97;1.60;;;6.90;99.90;;;;;;5055202;28;20417;-76
2022/02/06 15:28:49;;;;;;;5.47;1.20;;;6.90;99.90;;;;;;5055079;28;20555;-76
2022/02/06 15:31:16;;;;;;;3.77;1.50;;;6.90;99.90;;;;;;5055058;28;20512;-76
2022/02/06 15:33:43;;;;;;;2.73;1.13;;;6.90;99.90;;;;;;5054856;28;20476;-76
2022/02/06 15:36:09;;;;;;;5.27;1.90;;;6.90;99.90;;;;;;5054952;28;20420;-76
2022/02/06 15:38:37;;;;;;;3.07;1.47;;;6.70;99.90;;;;;;5054635;28;20432;-76
2022/02/06 15:41:03;;;;;;;4.00;1.70;;;6.80;99.90;;;;;;5054890;28;20418;-76
2022/02/06 15:43:29;;;;;;;3.70;2.13;;;6.70;99.90;;;;;;5054948;28;20855;-76
2022/02/06 15:45:55;;;;;;;3.43;1.67;;;6.70;99.90;;;;;;5054772;28;20431;-75
2022/02/06 15:48:21;;;;;;;3.00;1.43;;;6.70;99.90;;;;;;5054632;28;20436;-75
2022/02/06 15:50:48;;;;;;;2.80;1.50;;;6.70;99.90;;;;;;5054688;28;20429;-76
2022/02/06 15:53:14;;;;;;;3.23;1.77;;;6.60;99.90;;;;;;5054469;28;20483;-75